Time;durP1;ratioP1;P1;durP2;ratioP2;P2;SDS_P1;SDS_P2;PMS_P1;PMS_P2;Temp;Humidity;BMP_temperature;BMP_pressure;BME280_temperature;BME280_humidity;BME280_pressure;Samples;Min_cycle;Max_cycle;Signal;HPM_P1;HPM_P2
2023/07/17 00:01:59;;;;;;;5.50;3.10;;;;;;;;;;4989419;28;20062;-62
2023/07/17 00:04:25;;;;;;;7.70;2.73;;;;;;;;;;4989447;28;20401;-62
2023/07/17 00:06:51;;;;;;;6.20;2.80;;;;;;;;;;4989266;28;20047;-61
2023/07/17 00:09:17;;;;;;;6.63;2.63;;;;;;;;;;4988132;28;20058;-62
2023/07/17 00:11:43;;;;;;;4.60;2.43;;;;;;;;;;4989425;28;20043;-61
2023/07/17 00:14:09;;;;;;;7.17;2.40;;;;;;;;;;4988745;28;20573;-61
2023/07/17 00:16:35;;;;;;;5.20;1.97;;;;;;;;;;4989030;28;20046;-62
2023/07/17 00:19:01;;;;;;;6.67;2.30;;;;;;;;;;4988604;28;20130;-61
2023/07/17 00:21:27;;;;;;;9.47;2.83;;;;;;;;;;4988668;28;20062;-62
2023/07/17 00:23:53;;;;;;;6.87;3.30;;;;;;;;;;4989242;28;20042;-61
2023/07/17 00:26:20;;;;;;;8.30;2.30;;;;;;;;;;4989525;28;20468;-61
2023/07/17 00:28:46;;;;;;;7.00;2.70;;;;;;;;;;4987835;28;20389;-62
2023/07/17 00:31:12;;;;;;;7.83;2.37;;;;;;;;;;4989161;28;20050;-62
2023/07/17 00:33:38;;;;;;;8.80;2.77;;;;;;;;;;4989356;28;20459;-62
2023/07/17 00:36:04;;;;;;;11.63;2.80;;;;;;;;;;4988430;28;20109;-62
2023/07/17 00:38:30;;;;;;;9.10;2.53;;;;;;;;;;4987925;28;20496;-62
2023/07/17 00:40:56;;;;;;;7.40;3.07;;;;;;;;;;4987717;28;20057;-61
2023/07/17 00:43:22;;;;;;;8.90;2.47;;;;;;;;;;4988807;28;20566;-61
2023/07/17 00:45:48;;;;;;;7.30;2.43;;;;;;;;;;4989391;28;20042;-61
2023/07/17 00:48:15;;;;;;;7.37;2.37;;;;;;;;;;4987468;28;20050;-62
2023/07/17 00:50:41;;;;;;;8.63;2.40;;;;;;;;;;4988892;28;20382;-62
2023/07/17 00:53:08;;;;;;;8.63;2.83;;;;;;;;;;4990448;28;20043;-61
2023/07/17 00:55:35;;;;;;;5.30;1.93;;;;;;;;;;4988484;28;20042;-63
2023/07/17 00:58:01;;;;;;;7.17;2.00;;;;;;;;;;4978816;28;20137;-61
2023/07/17 01:00:27;;;;;;;6.20;2.00;;;;;;;;;;4992638;28;20142;-61
2023/07/17 01:02:53;;;;;;;6.23;1.93;;;;;;;;;;4992432;28;20634;-62
2023/07/17 01:05:19;;;;;;;7.27;2.33;;;;;;;;;;4992006;28;20161;-61
2023/07/17 01:07:45;;;;;;;6.13;1.90;;;;;;;;;;4991663;28;20116;-61
2023/07/17 01:10:12;;;;;;;5.90;1.80;;;;;;;;;;4990967;28;20061;-61
2023/07/17 01:12:38;;;;;;;8.33;1.87;;;;;;;;;;4992185;28;20065;-61
2023/07/17 01:15:04;;;;;;;10.77;1.90;;;;;;;;;;4992473;28;20500;-61
2023/07/17 01:17:31;;;;;;;5.93;2.07;;;;;;;;;;4991744;28;20043;-61
2023/07/17 01:19:57;;;;;;;6.67;2.20;;;;;;;;;;4991581;28;20054;-61
2023/07/17 01:22:27;;;;;;;6.57;2.73;;;;;;;;;;4992720;28;20262;-61
2023/07/17 01:24:53;;;;;;;8.97;2.90;;;;;;;;;;4992584;28;20473;-61
2023/07/17 01:27:19;;;;;;;6.80;2.20;;;;;;;;;;4991997;28;20061;-62
2023/07/17 01:29:45;;;;;;;6.87;2.23;;;;;;;;;;4991469;28;20042;-62
2023/07/17 01:32:11;;;;;;;6.93;2.23;;;;;;;;;;4992140;28;20054;-61
2023/07/17 01:34:38;;;;;;;7.40;2.13;;;;;;;;;;4991855;28;20575;-62
2023/07/17 01:37:05;;;;;;;7.67;2.20;;;;;;;;;;4991067;28;20592;-62
2023/07/17 01:39:31;;;;;;;7.37;2.07;;;;;;;;;;4981314;28;20057;-62
2023/07/17 01:41:56;;;;;;;7.47;2.50;;;;;;;;;;4991907;28;20038;-62
2023/07/17 01:44:27;;;;;;;6.67;2.30;;;;;;;;;;4991479;28;20054;-62
2023/07/17 01:46:53;;;;;;;5.87;1.80;;;;;;;;;;4991182;28;20485;-62
2023/07/17 01:49:19;;;;;;;6.47;2.00;;;;;;;;;;4991968;28;20097;-62
2023/07/17 01:51:45;;;;;;;6.03;1.70;;;;;;;;;;4991649;28;20096;-61
2023/07/17 01:54:12;;;;;;;6.47;2.20;;;;;;;;;;4991571;28;20112;-62
2023/07/17 01:56:38;;;;;;;6.40;2.00;;;;;;;;;;4990102;28;20076;-62
2023/07/17 01:59:04;;;;;;;6.50;2.83;;;;;;;;;;4991382;28;20042;-62
2023/07/17 02:01:31;;;;;;;10.90;2.50;;;;;;;;;;4991727;28;20050;-62
2023/07/17 02:03:57;;;;;;;6.73;2.00;;;;;;;;;;4990058;28;20072;-62
2023/07/17 02:06:23;;;;;;;6.13;2.00;;;;;;;;;;4990070;28;20038;-61
2023/07/17 02:08:49;;;;;;;12.40;2.90;;;;;;;;;;4987444;28;20049;-62
2023/07/17 02:11:15;;;;;;;10.03;2.50;;;;;;;;;;4991429;28;20560;-62
2023/07/17 02:13:41;;;;;;;11.53;2.77;;;;;;;;;;4991177;28;20049;-62
2023/07/17 02:16:07;;;;;;;7.97;2.80;;;;;;;;;;4990165;28;20120;-61
2023/07/17 02:18:33;;;;;;;10.17;2.47;;;;;;;;;;4973483;28;20523;-61
2023/07/17 02:20:59;;;;;;;8.50;2.70;;;;;;;;;;4991424;28;20128;-61
2023/07/17 02:23:25;;;;;;;7.83;2.83;;;;;;;;;;4991270;28;21069;-61
2023/07/17 02:25:51;;;;;;;5.97;2.37;;;;;;;;;;4990106;28;20042;-62
2023/07/17 02:28:17;;;;;;;9.53;2.77;;;;;;;;;;4990768;28;20050;-62
2023/07/17 02:30:43;;;;;;;9.63;3.07;;;;;;;;;;4990949;28;20038;-61
2023/07/17 02:33:09;;;;;;;9.27;2.93;;;;;;;;;;4990661;28;20043;-62
2023/07/17 02:35:34;;;;;;;9.47;2.83;;;;;;;;;;4990068;28;20616;-62
2023/07/17 02:38:00;;;;;;;11.93;3.07;;;;;;;;;;4990410;28;20050;-61
2023/07/17 02:40:27;;;;;;;9.73;3.27;;;;;;;;;;4990684;28;20042;-62
2023/07/17 02:42:52;;;;;;;10.87;3.30;;;;;;;;;;4990721;28;20049;-62
2023/07/17 02:45:18;;;;;;;11.50;3.20;;;;;;;;;;4990322;28;20038;-62
2023/07/17 02:47:44;;;;;;;12.37;3.67;;;;;;;;;;4989703;28;20065;-62
2023/07/17 02:50:10;;;;;;;13.80;4.23;;;;;;;;;;4990772;28;20413;-62
2023/07/17 02:52:37;;;;;;;14.53;4.00;;;;;;;;;;4990539;28;20046;-62
2023/07/17 02:55:06;;;;;;;13.20;3.47;;;;;;;;;;4989770;28;20050;-62
2023/07/17 02:57:34;;;;;;;12.93;3.70;;;;;;;;;;4988960;28;20057;-62
2023/07/17 03:00:00;;;;;;;14.67;3.43;;;;;;;;;;4990269;28;20047;-62
2023/07/17 03:02:25;;;;;;;11.47;3.40;;;;;;;;;;4990482;28;20170;-62
2023/07/17 03:04:51;;;;;;;10.53;3.47;;;;;;;;;;4990653;28;20035;-62
2023/07/17 03:07:17;;;;;;;13.20;3.40;;;;;;;;;;4988995;28;20065;-61
2023/07/17 03:09:43;;;;;;;12.60;3.57;;;;;;;;;;4991039;28;20054;-61
2023/07/17 03:12:09;;;;;;;9.63;3.03;;;;;;;;;;4990076;28;20572;-61
2023/07/17 03:14:35;;;;;;;10.60;3.20;;;;;;;;;;4988580;28;20038;-61
2023/07/17 03:17:01;;;;;;;11.77;3.23;;;;;;;;;;4990149;28;20109;-62
2023/07/17 03:19:27;;;;;;;14.20;3.20;;;;;;;;;;4990061;28;20053;-62
2023/07/17 03:21:53;;;;;;;11.83;3.13;;;;;;;;;;4990085;28;20046;-61
2023/07/17 03:24:19;;;;;;;9.03;2.93;;;;;;;;;;4988553;28;20511;-61
2023/07/17 03:26:45;;;;;;;12.07;3.43;;;;;;;;;;4984713;28;20112;-62
2023/07/17 03:29:11;;;;;;;12.10;3.80;;;;;;;;;;4970446;28;20050;-61
2023/07/17 03:31:37;;;;;;;12.20;3.50;;;;;;;;;;4970326;28;20053;-62
2023/07/17 03:34:03;;;;;;;15.93;3.57;;;;;;;;;;4979557;28;20453;-62
2023/07/17 03:36:29;;;;;;;13.27;3.43;;;;;;;;;;4989154;28;20043;-62
2023/07/17 03:38:55;;;;;;;15.97;4.63;;;;;;;;;;4989338;28;20401;-61
2023/07/17 03:41:21;;;;;;;9.83;3.57;;;;;;;;;;4989486;28;20105;-62
2023/07/17 03:43:47;;;;;;;11.27;3.97;;;;;;;;;;4988701;28;20121;-62
2023/07/17 03:46:14;;;;;;;12.17;4.17;;;;;;;;;;4989565;28;20049;-62
2023/07/17 03:48:40;;;;;;;8.57;4.00;;;;;;;;;;4988759;28;20496;-62
2023/07/17 03:51:06;;;;;;;10.50;3.97;;;;;;;;;;4989122;28;20630;-62
2023/07/17 03:53:32;;;;;;;14.03;4.00;;;;;;;;;;4988326;28;20140;-62
2023/07/17 03:55:58;;;;;;;13.77;4.13;;;;;;;;;;4987425;28;20050;-61
2023/07/17 03:58:24;;;;;;;10.80;4.20;;;;;;;;;;4989058;28;20543;-61
2023/07/17 04:00:50;;;;;;;9.63;3.33;;;;;;;;;;4989318;28;20358;-61
2023/07/17 04:03:17;;;;;;;13.73;3.73;;;;;;;;;;4988015;28;20046;-62
2023/07/17 04:05:44;;;;;;;12.60;4.83;;;;;;;;;;4988417;28;20125;-62
2023/07/17 04:08:10;;;;;;;9.93;3.63;;;;;;;;;;4988212;28;20616;-62
2023/07/17 04:10:36;;;;;;;18.53;4.50;;;;;;;;;;4989166;28;20058;-62
2023/07/17 04:13:02;;;;;;;9.20;3.40;;;;;;;;;;4989082;28;20049;-62
2023/07/17 04:15:29;;;;;;;11.50;3.70;;;;;;;;;;4988490;28;20050;-62
2023/07/17 04:17:55;;;;;;;10.63;4.13;;;;;;;;;;4988552;28;20050;-62
2023/07/17 04:20:21;;;;;;;10.83;3.60;;;;;;;;;;4988519;28;20556;-61
2023/07/17 04:22:47;;;;;;;11.87;4.20;;;;;;;;;;4988227;28;20463;-61
2023/07/17 04:25:13;;;;;;;12.00;3.33;;;;;;;;;;4988076;28;20046;-62
2023/07/17 04:27:39;;;;;;;11.60;3.90;;;;;;;;;;4988863;28;20502;-62
2023/07/17 04:30:05;;;;;;;9.40;3.43;;;;;;;;;;4988369;28;20046;-61
2023/07/17 04:32:31;;;;;;;12.83;3.50;;;;;;;;;;4988976;28;20093;-62
2023/07/17 04:34:57;;;;;;;15.07;3.77;;;;;;;;;;4988033;28;20042;-62
2023/07/17 04:37:23;;;;;;;12.40;4.20;;;;;;;;;;4988247;28;20484;-62
2023/07/17 04:39:49;;;;;;;11.10;3.93;;;;;;;;;;4988679;28;20045;-62
2023/07/17 04:42:15;;;;;;;14.07;4.10;;;;;;;;;;4988737;28;20561;-61
2023/07/17 04:44:43;;;;;;;10.97;3.57;;;;;;;;;;4986342;28;20053;-62
2023/07/17 04:47:10;;;;;;;10.97;4.30;;;;;;;;;;4969237;28;20047;-62
2023/07/17 04:49:36;;;;;;;12.90;4.70;;;;;;;;;;4969299;28;20073;-62
2023/07/17 04:52:02;;;;;;;10.43;4.07;;;;;;;;;;4982869;28;20128;-63
2023/07/17 04:54:28;;;;;;;11.77;4.53;;;;;;;;;;4986749;28;20416;-61
2023/07/17 04:56:54;;;;;;;13.23;4.47;;;;;;;;;;4968375;28;20058;-62
2023/07/17 04:59:21;;;;;;;10.50;4.60;;;;;;;;;;4969024;28;20618;-62
2023/07/17 05:01:47;;;;;;;8.07;3.77;;;;;;;;;;4969568;28;20050;-62
2023/07/17 05:04:14;;;;;;;11.30;4.60;;;;;;;;;;4952334;28;20051;-62
2023/07/17 05:06:40;;;;;;;12.53;4.70;;;;;;;;;;4982242;28;20497;-62
2023/07/17 05:09:06;;;;;;;9.17;4.00;;;;;;;;;;4969188;28;20413;-64
2023/07/17 05:11:32;;;;;;;13.67;5.07;;;;;;;;;;4969295;28;20047;-62
2023/07/17 05:13:58;;;;;;;8.93;4.67;;;;;;;;;;4979239;28;20129;-62
2023/07/17 05:16:24;;;;;;;14.27;5.83;;;;;;;;;;4986368;28;20042;-62
2023/07/17 05:18:50;;;;;;;11.13;4.30;;;;;;;;;;4988278;28;20122;-62
2023/07/17 05:21:17;;;;;;;8.87;4.40;;;;;;;;;;4988292;28;20042;-62
2023/07/17 05:23:43;;;;;;;9.87;4.77;;;;;;;;;;4988690;28;20089;-62
2023/07/17 05:26:09;;;;;;;13.47;4.50;;;;;;;;;;4987202;28;20051;-62
2023/07/17 05:28:35;;;;;;;12.00;4.80;;;;;;;;;;4990183;28;20057;-61
2023/07/17 05:31:01;;;;;;;13.80;4.77;;;;;;;;;;4987223;28;20050;-62
2023/07/17 05:33:27;;;;;;;10.47;4.67;;;;;;;;;;4988003;28;20493;-62
2023/07/17 05:35:53;;;;;;;16.23;4.77;;;;;;;;;;4987066;28;20125;-61
2023/07/17 05:38:19;;;;;;;10.50;4.63;;;;;;;;;;4988626;28;20112;-62
2023/07/17 05:40:45;;;;;;;13.13;4.13;;;;;;;;;;4992230;28;20042;-62
2023/07/17 05:43:11;;;;;;;14.57;4.67;;;;;;;;;;4991624;28;20537;-62
2023/07/17 05:45:37;;;;;;;13.47;4.17;;;;;;;;;;4990672;28;20049;-61
2023/07/17 05:48:03;;;;;;;12.90;4.20;;;;;;;;;;4991685;28;20047;-63
2023/07/17 05:50:29;;;;;;;10.13;4.23;;;;;;;;;;4991460;28;20054;-61
2023/07/17 05:52:55;;;;;;;15.23;5.53;;;;;;;;;;4990935;28;20116;-62
2023/07/17 05:55:21;;;;;;;10.13;4.17;;;;;;;;;;4990341;28;20058;-61
2023/07/17 05:57:47;;;;;;;12.73;4.47;;;;;;;;;;4991371;28;20578;-61
2023/07/17 06:00:14;;;;;;;14.50;4.60;;;;;;;;;;4989420;28;20109;-62
2023/07/17 06:02:43;;;;;;;11.00;4.57;;;;;;;;;;4971995;28;20046;-62
2023/07/17 06:05:10;;;;;;;11.00;5.00;;;;;;;;;;4977430;28;20043;-62
2023/07/17 06:07:36;;;;;;;16.33;4.97;;;;;;;;;;4991666;28;20741;-62
2023/07/17 06:10:02;;;;;;;18.00;4.30;;;;;;;;;;4991065;28;20108;-62
2023/07/17 06:12:28;;;;;;;11.87;4.73;;;;;;;;;;4988146;28;20170;-63
2023/07/17 06:14:55;;;;;;;9.73;4.67;;;;;;;;;;4991142;28;20042;-62
2023/07/17 06:17:22;;;;;;;15.83;5.37;;;;;;;;;;4990601;28;20053;-62
2023/07/17 06:19:48;;;;;;;10.37;4.00;;;;;;;;;;4991090;28;20161;-62
2023/07/17 06:22:14;;;;;;;14.67;5.53;;;;;;;;;;4988914;28;20042;-63
2023/07/17 06:24:40;;;;;;;13.23;5.33;;;;;;;;;;4990372;28;20406;-62
2023/07/17 06:27:06;;;;;;;10.83;4.63;;;;;;;;;;4989787;28;20053;-62
2023/07/17 06:29:32;;;;;;;17.83;5.53;;;;;;;;;;4988746;28;20046;-62
2023/07/17 06:31:58;;;;;;;13.87;4.83;;;;;;;;;;4990858;28;20042;-63
2023/07/17 06:34:24;;;;;;;12.80;5.60;;;;;;;;;;4990006;28;20516;-62
2023/07/17 06:36:50;;;;;;;14.40;5.43;;;;;;;;;;4991006;28;20060;-62
2023/07/17 06:39:16;;;;;;;15.70;5.80;;;;;;;;;;4989482;28;20403;-62
2023/07/17 06:41:42;;;;;;;19.40;6.03;;;;;;;;;;4990409;28;20046;-62
2023/07/17 06:44:09;;;;;;;13.47;4.90;;;;;;;;;;4990252;28;20042;-62
2023/07/17 06:46:35;;;;;;;15.80;5.70;;;;;;;;;;4990848;28;20510;-62
2023/07/17 06:49:00;;;;;;;11.10;5.20;;;;;;;;;;4990148;28;20409;-62
2023/07/17 06:51:27;;;;;;;15.00;5.17;;;;;;;;;;4971952;28;20049;-61
2023/07/17 06:53:53;;;;;;;18.10;5.83;;;;;;;;;;4984104;28;20043;-62
2023/07/17 06:56:19;;;;;;;19.07;6.33;;;;;;;;;;4970953;28;20053;-62
2023/07/17 06:58:45;;;;;;;21.87;6.57;;;;;;;;;;4984514;28;20141;-62
2023/07/17 07:01:14;;;;;;;18.43;5.33;;;;;;;;;;4986857;28;20921;-62
2023/07/17 07:03:42;;;;;;;16.40;5.87;;;;;;;;;;4975472;28;20046;-61
2023/07/17 07:06:08;;;;;;;15.90;6.27;;;;;;;;;;4988554;28;20350;-61
2023/07/17 07:08:34;;;;;;;13.67;5.43;;;;;;;;;;4985015;28;20077;-61
2023/07/17 07:11:02;;;;;;;18.17;6.70;;;;;;;;;;4985712;28;20390;-61
2023/07/17 07:13:28;;;;;;;15.00;5.20;;;;;;;;;;4970693;28;20051;-62
2023/07/17 07:15:53;;;;;;;12.60;5.20;;;;;;;;;;4970398;28;20049;-61
2023/07/17 07:18:20;;;;;;;16.70;5.53;;;;;;;;;;4971108;28;20460;-61
2023/07/17 07:20:47;;;;;;;16.33;5.90;;;;;;;;;;4970966;28;20468;-62
2023/07/17 07:23:13;;;;;;;17.90;5.47;;;;;;;;;;4970702;28;20061;-62
2023/07/17 07:25:39;;;;;;;13.80;4.93;;;;;;;;;;4970099;28;20131;-61
2023/07/17 07:28:05;;;;;;;12.53;5.47;;;;;;;;;;4970885;28;20125;-61
2023/07/17 07:30:32;;;;;;;12.30;5.27;;;;;;;;;;4979912;28;20485;-61
2023/07/17 07:32:58;;;;;;;14.33;5.53;;;;;;;;;;4988815;28;20034;-62
2023/07/17 07:35:24;;;;;;;14.03;6.10;;;;;;;;;;4988967;28;20555;-61
2023/07/17 07:37:50;;;;;;;14.33;5.60;;;;;;;;;;4984477;28;20162;-61
2023/07/17 07:40:16;;;;;;;16.00;6.03;;;;;;;;;;4969815;28;20125;-61
2023/07/17 07:42:43;;;;;;;12.70;5.40;;;;;;;;;;4969665;28;20046;-61
2023/07/17 07:45:10;;;;;;;13.67;4.83;;;;;;;;;;4981861;28;20046;-61
2023/07/17 07:47:36;;;;;;;13.10;5.10;;;;;;;;;;4989515;28;20042;-61
2023/07/17 07:50:02;;;;;;;12.53;4.90;;;;;;;;;;4989626;28;20057;-61
2023/07/17 07:52:28;;;;;;;12.90;4.40;;;;;;;;;;4989099;28;20045;-62
2023/07/17 07:54:54;;;;;;;15.00;4.37;;;;;;;;;;4989220;28;20058;-62
2023/07/17 07:57:20;;;;;;;11.47;4.80;;;;;;;;;;4989567;28;20058;-62
2023/07/17 07:59:46;;;;;;;14.13;5.00;;;;;;;;;;4989078;28;20054;-62
2023/07/17 08:02:12;;;;;;;9.37;4.27;;;;;;;;;;4988678;28;20054;-61
2023/07/17 08:04:38;;;;;;;10.97;5.03;;;;;;;;;;4987746;28;20100;-62
2023/07/17 08:07:04;;;;;;;12.10;4.80;;;;;;;;;;4989101;28;20042;-62
2023/07/17 08:09:31;;;;;;;9.77;3.77;;;;;;;;;;4987384;28;20054;-62
2023/07/17 08:11:57;;;;;;;12.03;4.10;;;;;;;;;;4989317;28;20101;-61
2023/07/17 08:14:23;;;;;;;10.40;4.63;;;;;;;;;;4988585;28;20053;-61
2023/07/17 08:16:49;;;;;;;13.27;6.00;;;;;;;;;;4989112;28;20112;-62
2023/07/17 08:19:15;;;;;;;11.43;5.50;;;;;;;;;;4989114;28;20074;-61
2023/07/17 08:21:42;;;;;;;10.70;4.40;;;;;;;;;;4985356;28;20108;-62
2023/07/17 08:24:08;;;;;;;12.47;4.40;;;;;;;;;;4976932;28;20043;-62
2023/07/17 08:26:34;;;;;;;9.50;4.13;;;;;;;;;;4970408;28;20046;-62
2023/07/17 08:29:02;;;;;;;13.80;4.80;;;;;;;;;;4979479;28;20096;-61
2023/07/17 08:31:28;;;;;;;15.10;5.50;;;;;;;;;;4988311;28;20049;-61
2023/07/17 08:33:54;;;;;;;12.63;5.50;;;;;;;;;;4988826;28;20074;-61
2023/07/17 08:36:22;;;;;;;11.83;5.17;;;;;;;;;;4968826;28;20537;-61
2023/07/17 08:38:48;;;;;;;11.60;4.37;;;;;;;;;;4969798;28;20094;-61
2023/07/17 08:41:14;;;;;;;13.03;4.03;;;;;;;;;;4969939;28;20047;-61
2023/07/17 08:43:40;;;;;;;11.13;4.63;;;;;;;;;;4970496;28;20106;-61
2023/07/17 08:46:06;;;;;;;11.03;4.73;;;;;;;;;;4988543;28;20042;-61
2023/07/17 08:48:32;;;;;;;7.87;3.87;;;;;;;;;;4976039;28;20034;-62
2023/07/17 08:50:59;;;;;;;13.20;4.30;;;;;;;;;;4985400;28;20186;-61
2023/07/17 08:53:25;;;;;;;10.57;4.20;;;;;;;;;;4987220;28;20492;-62
2023/07/17 08:55:53;;;;;;;10.47;3.50;;;;;;;;;;4999590;28;20061;-61
2023/07/17 08:58:20;;;;;;;12.40;4.23;;;;;;;;;;4976220;28;20114;-62
2023/07/17 09:00:47;;;;;;;7.83;4.10;;;;;;;;;;4987842;28;20053;-62
2023/07/17 09:03:13;;;;;;;9.60;4.27;;;;;;;;;;4985758;28;20119;-62
2023/07/17 09:05:39;;;;;;;10.30;3.97;;;;;;;;;;4991878;28;20121;-61
2023/07/17 09:08:05;;;;;;;15.67;5.63;;;;;;;;;;4986223;28;20125;-61
2023/07/17 09:10:31;;;;;;;11.20;4.87;;;;;;;;;;4992355;28;20057;-62
2023/07/17 09:12:58;;;;;;;13.57;5.13;;;;;;;;;;4998162;28;20046;-61
2023/07/17 09:15:25;;;;;;;13.07;5.00;;;;;;;;;;4995181;28;20065;-61
2023/07/17 09:17:51;;;;;;;14.43;5.10;;;;;;;;;;4973735;28;20098;-62
2023/07/17 09:20:19;;;;;;;11.47;4.50;;;;;;;;;;4986310;28;20098;-62
2023/07/17 09:22:45;;;;;;;13.03;4.60;;;;;;;;;;4976363;28;20054;-62
2023/07/17 09:25:12;;;;;;;16.60;4.70;;;;;;;;;;4988563;28;20046;-62
2023/07/17 09:27:48;;;;;;;12.83;4.93;;;;;;;;;;4999909;28;20038;-62
2023/07/17 09:30:15;;;;;;;12.80;4.30;;;;;;;;;;4957093;28;20105;-62
2023/07/17 09:32:41;;;;;;;10.17;4.77;;;;;;;;;;4990939;28;20469;-62
2023/07/17 09:35:08;;;;;;;10.37;4.43;;;;;;;;;;4991683;28;20047;-62
2023/07/17 09:37:35;;;;;;;10.10;3.53;;;;;;;;;;4991546;28;20042;-62
2023/07/17 09:40:07;;;;;;;7.83;3.93;;;;;;;;;;4991697;28;20057;-62
2023/07/17 09:42:33;;;;;;;12.23;3.47;;;;;;;;;;4988314;28;20042;-62
2023/07/17 09:44:59;;;;;;;9.23;4.17;;;;;;;;;;4991569;28;20108;-62
2023/07/17 09:47:26;;;;;;;9.17;3.30;;;;;;;;;;4991202;28;20496;-62
2023/07/17 09:49:54;;;;;;;9.93;3.40;;;;;;;;;;4989376;28;20054;-62
2023/07/17 09:52:20;;;;;;;10.13;3.30;;;;;;;;;;4990693;28;20081;-62
2023/07/17 09:54:49;;;;;;;8.47;3.83;;;;;;;;;;4989594;28;20058;-63
2023/07/17 09:57:23;;;;;;;8.10;3.53;;;;;;;;;;4990290;28;20120;-62
2023/07/17 09:59:50;;;;;;;7.50;3.57;;;;;;;;;;4991343;28;20042;-62
2023/07/17 10:02:18;;;;;;;6.63;2.90;;;;;;;;;;4990398;28;20061;-63
2023/07/17 10:04:46;;;;;;;7.57;3.20;;;;;;;;;;4976495;28;20050;-62
2023/07/17 10:07:13;;;;;;;12.33;2.73;;;;;;;;;;4992060;28;20140;-62
2023/07/17 10:09:41;;;;;;;7.87;2.90;;;;;;;;;;4991308;28;20046;-63
2023/07/17 10:12:08;;;;;;;6.07;2.67;;;;;;;;;;4995221;28;20077;-62
2023/07/17 10:14:34;;;;;;;8.93;3.13;;;;;;;;;;4990629;28;20035;-62
2023/07/17 10:17:00;;;;;;;5.17;2.57;;;;;;;;;;4990848;28;20069;-62
2023/07/17 10:19:27;;;;;;;9.17;2.90;;;;;;;;;;4990070;28;20416;-62
2023/07/17 10:21:54;;;;;;;7.63;2.97;;;;;;;;;;4990831;28;20034;-62
